Details From MROC - San Jose Juan Santamaria Intl
To MHTG - Tegucigalpa Toncontin Intl
Flight Number -
Tags generated
Created
Modified
Stats Distance 305 nm / 565 km
Max Altitude 34,000 ft / 10,363 m
Waypoints 6
Social Downloads 14
Likes 0
Share VATSIM

Download

Looking for another format? Having issues loading an existing format? Contact us
Advertisement - Login to hide

Notes

Basic altitude profile: - Ascent Rate: 2500ft/min - Ascent Speed: 250kts - Cruise Altitude: 35000ft - Cruise Speed: 420kts - Descent Rate: 1500ft/min - Descent Speed: 250kts

Route

MROC ULAPO UA502 BERTA MHTG

ID Type Via Altitude Latitude Longitude Leg Dist Tot Dist Heading (true) Name
O MROC APT - 0 ft / 0 m 9.99393˚ -84.20888˚ - 0 nm - San Jose Juan Santamaria Intl
ULAPO FIX - 30,000 ft / 9,144 m 11.02833˚ -85.17167˚ 84 nm 84 nm 318° / 317° -
LISPA FIX UA502 (AWY-HI) 34,000 ft / 10,363 m 11.39000˚ -85.49750˚ 28 nm 113 nm 319° / 319° -
MGA VOR UA502 (AWY-HI) 28,100 ft / 8,565 m 12.13972˚ -86.17422˚ 60 nm 173 nm 319° / 318° MANAGUA VOR-DME
BERTA FIX UA502 (AWY-HI) 18,500 ft / 5,639 m 12.95000˚ -86.77333˚ 60 nm 233 nm 324° / 324° -
O MHTG APT - 0 ft / 0 m 14.06088˚ -87.21720˚ 71 nm 304 nm 339° / 339° Tegucigalpa Toncontin Intl

Altitude Profile

Advertisement - Login to hide

Weather


0- 5 10 15 20 25 30 35+ Temperature / ° C

Clouds and Precipitation
Forecast for 2017-12-12 00:00 UTC. Updated 10 minutes ago

Ground ~20,000 ft ~40,000 ft Winds

MROC

Details ICAO MROC (SJO)
Name San Jose Juan Santamaria Intl
Region Costa Rica
Timezone America/Costa_Rica (UTC-6.0)
Stats Elevation 3,021 ft / 921 m (AMSL)
Location 9.993927° -84.208884°
Runways 1
Magnetic Variation 1.717° W

METAR

MROC 112100Z 10011G22KT 060V140 9999 FEW035 SCT120 BKN200 20/14 A2997 NOSIG

Decode

TAF

TAF MROC 111100Z 1112/1212 11015KT 9999 FEW030 SCT100 TX27/1118Z TN19/1210Z TEMPO 1112/1212 11012G24KT

Decode

Departure Runways

ID Width Length Bearing (true) Bearing (mag) Surface Threshold Offset Overrun Length
07 151 ft / 46 m 9,994 ft / 3,046 m 68.91° 70.63° Asphalt 0 ft / 0 m 200 ft / 61 m
25 151 ft / 46 m 9,994 ft / 3,046 m 248.92° 250.64° Asphalt 1,969 ft / 600 m 200 ft / 61 m

MHTG

Details ICAO MHTG (TGU)
Name Tegucigalpa Toncontin Intl
Region Honduras
Timezone America/Tegucigalpa (UTC-6.0)
Stats Elevation 3,294 ft / 1,004 m (AMSL)
Location 14.060883° -87.217197°
Runways 1
Magnetic Variation 0.659° W

METAR

MHTG 112100Z 36014KT 9999 FEW012 SCT026 BKN080 17/12 Q1021 A3015 NOSIG

Decode

TAF

Not found

Destination Runways

ID Width Length Bearing (true) Bearing (mag) Surface Threshold Offset Overrun Length
02 148 ft / 45 m 6,140 ft / 1,872 m 18.87° 19.53° Asphalt 670 ft / 204 m 100 ft / 30 m
20 148 ft / 45 m 6,140 ft / 1,872 m 198.87° 199.53° Asphalt 0 ft / 0 m 200 ft / 61 m

Popular Alternatives